Time;durP1;ratioP1;P1;durP2;ratioP2;P2;SDS_P1;SDS_P2;PMS_P1;PMS_P2;Temp;Humidity;BMP_temperature;BMP_pressure;BME280_temperature;BME280_humidity;BME280_pressure;Samples;Min_cycle;Max_cycle;Signal;HPM_P1;HPM_P2
2023/12/15 00:04:58;;;;;;;;;;;;;;;3.86;100.00;96488.97;10462735;28;2872;-71
2023/12/15 00:10:03;;;;;;;;;;;;;;;3.90;100.00;96500.81;10468277;28;3022;-68
2023/12/15 00:15:06;;;;;;;;;;;;;;;3.98;100.00;96508.53;10452753;28;2871;-69
2023/12/15 00:20:08;;;;;;;;;;;;;;;3.97;100.00;96511.44;10456429;28;2851;-69
2023/12/15 00:25:11;;;;;;;;;;;;;;;4.01;100.00;96517.97;10464091;28;2908;-69
2023/12/15 00:30:14;;;;;;;;;;;;;;;4.01;100.00;96509.97;10460573;28;3345;-68
2023/12/15 00:35:17;;;;;;;;;;;;;;;4.00;100.00;96513.66;10462199;28;2852;-68
2023/12/15 00:40:22;;;;;;;;;;;;;;;3.99;100.00;96530.63;10466218;28;2899;-69
2023/12/15 00:45:25;;;;;;;;;;;;;;;4.04;100.00;96536.13;10456076;28;4939;-67
2023/12/15 00:50:28;;;;;;;;;;;;;;;4.18;100.00;96544.84;10459218;28;2988;-70
2023/12/15 00:55:31;;;;;;;;;;;;;;;4.18;100.00;96550.19;10458924;28;2894;-72
2023/12/15 01:00:33;;;;;;;;;;;;;;;4.23;100.00;96561.00;10459160;28;2861;-67
2023/12/15 01:05:36;;;;;;;;;;;;;;;4.21;100.00;96565.72;10456778;28;2907;-69
2023/12/15 01:10:39;;;;;;;;;;;;;;;4.12;100.00;96581.13;10452615;28;2962;-70
2023/12/15 01:15:41;;;;;;;;;;;;;;;4.05;100.00;96583.81;10456927;28;2804;-70
2023/12/15 01:20:44;;;;;;;;;;;;;;;3.96;100.00;96592.25;10456748;28;2890;-71
2023/12/15 01:25:46;;;;;;;;;;;;;;;3.98;100.00;96604.31;10459403;28;3188;-69
2023/12/15 01:30:49;;;;;;;;;;;;;;;4.00;100.00;96607.56;10458958;28;2871;-70
2023/12/15 01:35:51;;;;;;;;;;;;;;;3.98;100.00;96622.13;10456579;28;3024;-69
2023/12/15 01:40:54;;;;;;;;;;;;;;;3.88;100.00;96630.56;10466495;28;4999;-69
2023/12/15 01:45:56;;;;;;;;;;;;;;;3.74;100.00;96629.78;10453483;28;2866;-71
2023/12/15 01:51:13;;;;;;;;;;;;;;;3.49;100.00;96642.09;10454858;28;2895;-68
2023/12/15 01:56:16;;;;;;;;;;;;;;;3.50;100.00;96649.09;10457222;28;2853;-71
2023/12/15 02:01:19;;;;;;;;;;;;;;;3.34;100.00;96654.81;10453618;28;2772;-69
2023/12/15 02:06:22;;;;;;;;;;;;;;;3.28;100.00;96664.44;10455556;28;2967;-74
2023/12/15 02:11:24;;;;;;;;;;;;;;;3.18;100.00;96672.81;10461037;28;2802;-70
2023/12/15 02:16:27;;;;;;;;;;;;;;;3.17;100.00;96676.47;10461169;28;2858;-71
2023/12/15 02:21:29;;;;;;;;;;;;;;;3.19;100.00;96674.47;10465680;28;2798;-71
2023/12/15 02:26:32;;;;;;;;;;;;;;;3.06;100.00;96671.81;10468544;28;2896;-73
2023/12/15 02:31:35;;;;;;;;;;;;;;;3.14;100.00;96682.22;10463484;28;2813;-74
2023/12/15 02:36:37;;;;;;;;;;;;;;;3.13;100.00;96685.91;10461920;28;2816;-70
2023/12/15 02:41:40;;;;;;;;;;;;;;;3.19;100.00;96700.22;10467394;28;4988;-70
2023/12/15 02:46:42;;;;;;;;;;;;;;;3.12;100.00;96707.38;10460565;28;2867;-69
2023/12/15 02:51:45;;;;;;;;;;;;;;;3.17;100.00;96729.63;10463990;28;2857;-70
2023/12/15 02:56:47;;;;;;;;;;;;;;;3.25;100.00;96732.09;10462651;28;2953;-68
2023/12/15 03:01:50;;;;;;;;;;;;;;;3.24;100.00;96743.75;10471786;28;2877;-70
2023/12/15 03:06:52;;;;;;;;;;;;;;;3.12;100.00;96753.34;10492660;28;3302;-70
2023/12/15 03:11:55;;;;;;;;;;;;;;;3.18;100.00;96763.16;10457363;28;2800;-72
2023/12/15 03:16:57;;;;;;;;;;;;;;;3.14;100.00;96767.22;10461962;28;2965;-71
2023/12/15 03:22:00;;;;;;;;;;;;;;;3.18;100.00;96768.47;10462216;28;2850;-68
2023/12/15 03:27:02;;;;;;;;;;;;;;;3.19;100.00;96772.75;10460707;28;2911;-67
2023/12/15 03:32:05;;;;;;;;;;;;;;;3.13;100.00;96775.41;10461945;28;2734;-69
2023/12/15 03:37:08;;;;;;;;;;;;;;;3.14;100.00;96788.47;10462326;28;2852;-70
2023/12/15 03:42:11;;;;;;;;;;;;;;;3.14;100.00;96796.47;10451604;28;5098;-68
2023/12/15 03:47:13;;;;;;;;;;;;;;;3.14;100.00;96807.09;10458037;28;3185;-69
2023/12/15 03:52:16;;;;;;;;;;;;;;;3.22;100.00;96820.16;10485357;28;2972;-69
2023/12/15 03:57:19;;;;;;;;;;;;;;;3.11;100.00;96834.03;10452485;28;2910;-69
2023/12/15 04:02:21;;;;;;;;;;;;;;;2.99;100.00;96840.97;10453347;28;2929;-74
2023/12/15 04:07:24;;;;;;;;;;;;;;;3.07;100.00;96840.78;10455077;28;2898;-70
2023/12/15 04:12:26;;;;;;;;;;;;;;;3.10;100.00;96856.31;10455719;28;2983;-72
2023/12/15 04:17:29;;;;;;;;;;;;;;;3.13;100.00;96871.88;10457328;28;2920;-75
2023/12/15 04:22:32;;;;;;;;;;;;;;;3.06;100.00;96876.34;10466530;28;3195;-72
2023/12/15 04:27:34;;;;;;;;;;;;;;;3.12;100.00;96872.91;10466047;28;2971;-72
2023/12/15 04:32:44;;;;;;;;;;;;;;;3.15;100.00;96880.44;10460628;28;3253;-72
2023/12/15 04:37:47;;;;;;;;;;;;;;;3.20;100.00;96888.66;10455271;28;2851;-74
2023/12/15 04:42:50;;;;;;;;;;;;;;;3.18;100.00;96897.81;10455010;28;5000;-71
2023/12/15 04:47:54;;;;;;;;;;;;;;;3.16;100.00;96907.84;10456824;28;2812;-71
2023/12/15 04:52:58;;;;;;;;;;;;;;;3.20;100.00;96909.91;10459460;28;2863;-69
2023/12/15 04:58:01;;;;;;;;;;;;;;;3.20;100.00;96909.91;10460357;28;2819;-70
2023/12/15 05:03:04;;;;;;;;;;;;;;;3.15;100.00;96912.34;10457684;28;3652;-69
2023/12/15 05:08:07;;;;;;;;;;;;;;;3.09;100.00;96912.31;10461121;28;3144;-69
2023/12/15 05:13:09;;;;;;;;;;;;;;;3.08;100.00;96924.78;10460778;28;3156;-72
2023/12/15 05:18:13;;;;;;;;;;;;;;;3.06;100.00;96929.47;10456759;28;2941;-70
2023/12/15 05:23:18;;;;;;;;;;;;;;;3.04;100.00;96935.97;10457128;28;2805;-71
2023/12/15 05:28:23;;;;;;;;;;;;;;;2.92;100.00;96954.31;10454479;28;2953;-70
2023/12/15 05:33:40;;;;;;;;;;;;;;;2.94;100.00;96957.63;10474517;28;2965;-69
2023/12/15 05:38:59;;;;;;;;;;;;;;;3.01;100.00;96969.09;10453769;28;2892;-70
2023/12/15 05:44:30;;;;;;;;;;;;;;;3.09;100.00;96982.19;10456211;28;5180;-70
2023/12/15 05:50:02;;;;;;;;;;;;;;;3.13;100.00;96999.41;10485878;28;3236;-70
2023/12/15 05:55:06;;;;;;;;;;;;;;;3.12;100.00;97005.72;10489328;28;2912;-69
2023/12/15 06:00:23;;;;;;;;;;;;;;;3.11;100.00;97014.69;10462390;28;2863;-70
2023/12/15 06:05:45;;;;;;;;;;;;;;;3.09;100.00;97022.06;10465556;28;2840;-72
2023/12/15 06:10:53;;;;;;;;;;;;;;;3.05;100.00;97033.25;10456216;28;3011;-73
2023/12/15 06:15:57;;;;;;;;;;;;;;;2.67;100.00;97047.72;10460948;28;3082;-69
2023/12/15 06:21:02;;;;;;;;;;;;;;;2.31;100.00;97057.63;10493853;28;3190;-69
2023/12/15 06:31:33;;;;;;;;;;;;;;;2.37;100.00;97067.47;10464171;28;2827;-70
2023/12/15 06:36:40;;;;;;;;;;;;;;;2.27;100.00;97077.56;10463149;28;2991;-70
2023/12/15 06:41:58;;;;;;;;;;;;;;;2.48;100.00;97095.31;10461178;28;4691;-70
2023/12/15 06:52:30;;;;;;;;;;;;;;;2.33;100.00;97116.63;10472768;28;3319;-67
2023/12/15 06:57:34;;;;;;;;;;;;;;;2.34;100.00;97132.34;10459858;28;3108;-70
2023/12/15 07:02:38;;;;;;;;;;;;;;;2.38;100.00;97140.75;10462224;28;3187;-71
2023/12/15 07:07:41;;;;;;;;;;;;;;;2.36;100.00;97148.94;10465844;28;3218;-68
2023/12/15 07:12:56;;;;;;;;;;;;;;;2.25;100.00;97161.84;10464110;28;3157;-67
2023/12/15 07:18:08;;;;;;;;;;;;;;;2.16;100.00;97177.91;10463752;28;2962;-69
2023/12/15 07:23:15;;;;;;;;;;;;;;;2.15;100.00;97186.84;10462785;28;2804;-69
2023/12/15 07:39:08;;;;;;;;;;;;;;;2.48;100.00;97218.22;10460915;28;2926;-69
2023/12/15 07:44:25;;;;;;;;;;;;;;;2.57;100.00;97233.06;10457606;28;2855;-68
2023/12/15 07:49:42;;;;;;;;;;;;;;;2.65;100.00;97235.59;10459379;28;2939;-68
2023/12/15 07:54:45;;;;;;;;;;;;;;;2.84;100.00;97243.94;10495052;28;3177;-69
2023/12/15 07:59:49;;;;;;;;;;;;;;;2.91;100.00;97247.50;10459144;28;2879;-74
2023/12/15 08:05:03;;;;;;;;;;;;;;;2.88;100.00;97246.06;10467023;28;2832;-69
2023/12/15 08:10:16;;;;;;;;;;;;;;;3.02;100.00;97260.28;10460482;28;2980;-69
2023/12/15 08:15:20;;;;;;;;;;;;;;;3.12;100.00;97252.00;10457850;28;2916;-68
2023/12/15 08:20:30;;;;;;;;;;;;;;;3.15;100.00;97257.75;10463016;28;2874;-68
2023/12/15 08:25:33;;;;;;;;;;;;;;;3.30;100.00;97270.13;10466065;28;3201;-69
2023/12/15 08:30:44;;;;;;;;;;;;;;;3.29;100.00;97274.63;10474787;28;2861;-69
2023/12/15 08:35:49;;;;;;;;;;;;;;;3.21;100.00;97267.63;10462703;28;2813;-69
2023/12/15 08:40:59;;;;;;;;;;;;;;;3.37;100.00;97271.00;10465042;28;2821;-69
2023/12/15 08:46:08;;;;;;;;;;;;;;;3.24;100.00;97269.91;10465597;28;2861;-73
2023/12/15 08:51:14;;;;;;;;;;;;;;;3.43;100.00;97270.25;10458026;28;2893;-71
2023/12/15 08:56:17;;;;;;;;;;;;;;;3.54;100.00;97277.72;10461136;28;2895;-67
2023/12/15 09:01:28;;;;;;;;;;;;;;;3.75;100.00;97283.00;10455761;28;3141;-69
2023/12/15 09:06:36;;;;;;;;;;;;;;;3.74;100.00;97294.63;10463236;28;2804;-75
2023/12/15 09:11:48;;;;;;;;;;;;;;;3.66;100.00;97292.13;10450267;28;2958;-70
2023/12/15 09:16:54;;;;;;;;;;;;;;;3.74;100.00;97291.97;10496837;27;2808;-70
2023/12/15 09:22:05;;;;;;;;;;;;;;;3.70;100.00;97304.03;10445265;28;2868;-72
2023/12/15 09:27:08;;;;;;;;;;;;;;;3.64;100.00;97301.31;10458497;28;2777;-68
2023/12/15 09:32:26;;;;;;;;;;;;;;;3.77;100.00;97320.88;10459085;28;2911;-68
2023/12/15 09:37:33;;;;;;;;;;;;;;;3.78;100.00;97319.84;10460219;28;2835;-70
2023/12/15 09:42:38;;;;;;;;;;;;;;;3.92;100.00;97312.78;10449828;28;4869;-69
2023/12/15 09:47:42;;;;;;;;;;;;;;;3.82;100.00;97322.09;10468403;28;2819;-75
2023/12/15 09:52:55;;;;;;;;;;;;;;;3.96;100.00;97322.03;10473656;28;2891;-69
2023/12/15 09:57:59;;;;;;;;;;;;;;;4.20;100.00;97328.75;10489977;28;3506;-71
2023/12/15 10:03:09;;;;;;;;;;;;;;;4.15;100.00;97338.34;10461716;28;2874;-69
2023/12/15 10:08:22;;;;;;;;;;;;;;;4.09;100.00;97339.09;10461629;28;2900;-70
2023/12/15 10:13:26;;;;;;;;;;;;;;;4.36;100.00;97338.25;10460820;28;2852;-70
2023/12/15 10:18:36;;;;;;;;;;;;;;;4.30;100.00;97334.53;10467033;28;3138;-70
2023/12/15 10:23:41;;;;;;;;;;;;;;;4.14;100.00;97326.88;10467450;28;2959;-70
2023/12/15 10:28:50;;;;;;;;;;;;;;;3.95;100.00;97338.19;10461462;28;3273;-70
2023/12/15 10:34:11;;;;;;;;;;;;;;;3.98;100.00;97343.13;10461430;28;3157;-71
2023/12/15 10:39:14;;;;;;;;;;;;;;;4.10;100.00;97346.88;10468696;28;2842;-78
2023/12/15 10:44:21;;;;;;;;;;;;;;;4.07;100.00;97347.25;10493682;28;4899;-75
2023/12/15 10:49:37;;;;;;;;;;;;;;;3.99;100.00;97345.56;10464979;28;2911;-71
2023/12/15 10:54:56;;;;;;;;;;;;;;;3.96;100.00;97366.44;10490835;28;2793;-71
2023/12/15 10:59:59;;;;;;;;;;;;;;;3.94;100.00;97360.47;10492075;27;2867;-68
2023/12/15 11:05:09;;;;;;;;;;;;;;;3.97;100.00;97368.09;10455799;28;2841;-68
2023/12/15 11:15:37;;;;;;;;;;;;;;;4.16;100.00;97361.25;10455617;28;2841;-70
2023/12/15 11:20:47;;;;;;;;;;;;;;;4.22;100.00;97363.97;10459125;28;3181;-69
2023/12/15 11:25:55;;;;;;;;;;;;;;;4.16;100.00;97359.41;10462611;28;2914;-72
2023/12/15 11:31:03;;;;;;;;;;;;;;;4.52;100.00;97355.75;10463464;28;3043;-71
2023/12/15 11:36:13;;;;;;;;;;;;;;;4.62;100.00;97356.22;10459067;28;2847;-72
2023/12/15 11:41:23;;;;;;;;;;;;;;;4.89;100.00;97355.31;10470719;28;4962;-76
2023/12/15 11:46:31;;;;;;;;;;;;;;;5.01;100.00;97354.75;10471226;28;2829;-72
2023/12/15 11:51:37;;;;;;;;;;;;;;;4.97;100.00;97353.50;10483199;28;2895;-73
2023/12/15 11:56:42;;;;;;;;;;;;;;;5.13;100.00;97358.47;10445696;28;2892;-74
2023/12/15 12:01:49;;;;;;;;;;;;;;;5.10;100.00;97359.72;10447856;28;2798;-74
2023/12/15 12:06:59;;;;;;;;;;;;;;;5.21;100.00;97368.13;10488291;28;2928;-70
2023/12/15 12:12:03;;;;;;;;;;;;;;;5.29;100.00;97366.13;10466024;28;2816;-74
2023/12/15 12:17:09;;;;;;;;;;;;;;;5.35;100.00;97367.97;10483606;28;2989;-72
2023/12/15 12:22:18;;;;;;;;;;;;;;;5.52;100.00;97372.94;10503947;28;3022;-71
2023/12/15 12:27:26;;;;;;;;;;;;;;;5.66;100.00;97382.59;10510104;28;2977;-72
2023/12/15 12:32:38;;;;;;;;;;;;;;;5.50;100.00;97380.31;10519893;28;2824;-73
2023/12/15 12:38:01;;;;;;;;;;;;;;;5.47;100.00;97389.56;10504863;28;2944;-72
2023/12/15 12:43:18;;;;;;;;;;;;;;;5.25;100.00;97409.38;10511653;28;4892;-72
2023/12/15 12:48:25;;;;;;;;;;;;;;;5.27;100.00;97404.66;10516607;27;2946;-72
2023/12/15 12:53:31;;;;;;;;;;;;;;;5.37;100.00;97411.25;10506459;28;2909;-70
2023/12/15 12:58:39;;;;;;;;;;;;;;;5.41;100.00;97407.19;10526650;28;2832;-70
2023/12/15 13:03:44;;;;;;;;;;;;;;;5.29;100.00;97390.13;10516205;28;2883;-73
2023/12/15 13:08:51;;;;;;;;;;;;;;;5.24;100.00;97403.22;10482117;28;2886;-71
2023/12/15 13:13:54;;;;;;;;;;;;;;;5.14;100.00;97398.25;10514755;28;2929;-72
2023/12/15 13:19:03;;;;;;;;;;;;;;;5.25;100.00;97394.19;10500152;28;2870;-72
2023/12/15 13:24:20;;;;;;;;;;;;;;;5.45;100.00;97396.09;10496188;28;2914;-71
2023/12/15 13:29:24;;;;;;;;;;;;;;;5.39;100.00;97397.72;10508052;28;2769;-72
2023/12/15 13:34:38;;;;;;;;;;;;;;;5.26;100.00;97401.16;10494845;28;2907;-71
2023/12/15 13:39:48;;;;;;;;;;;;;;;5.26;100.00;97406.50;10481046;28;2880;-71
2023/12/15 13:44:52;;;;;;;;;;;;;;;5.16;100.00;97411.41;10492378;28;4699;-72
2023/12/15 13:50:00;;;;;;;;;;;;;;;5.04;100.00;97413.00;10498509;28;2862;-71
2023/12/15 13:55:11;;;;;;;;;;;;;;;5.01;100.00;97416.03;10529758;27;2808;-71
2023/12/15 14:00:24;;;;;;;;;;;;;;;4.94;100.00;97424.00;10499097;28;2943;-73
2023/12/15 14:05:31;;;;;;;;;;;;;;;5.11;100.00;97427.16;10500924;28;2919;-68
2023/12/15 14:10:37;;;;;;;;;;;;;;;5.09;100.00;97431.84;10493068;28;3080;-70
2023/12/15 14:15:44;;;;;;;;;;;;;;;5.06;100.00;97432.25;10508341;28;2791;-70
2023/12/15 14:20:49;;;;;;;;;;;;;;;4.92;100.00;97441.22;10534967;27;2868;-72
2023/12/15 14:25:54;;;;;;;;;;;;;;;4.97;100.00;97436.13;10501674;28;2846;-69
2023/12/15 14:30:58;;;;;;;;;;;;;;;4.97;100.00;97438.78;10527954;27;2792;-72
2023/12/15 14:36:04;;;;;;;;;;;;;;;4.98;100.00;97430.59;10517750;27;2810;-71
2023/12/15 14:41:21;;;;;;;;;;;;;;;4.98;100.00;97430.59;10508502;28;4869;-71
2023/12/15 14:46:27;;;;;;;;;;;;;;;4.91;100.00;97431.59;10522543;28;2844;-70
2023/12/15 14:51:38;;;;;;;;;;;;;;;5.04;100.00;97439.66;10504252;28;2868;-71
2023/12/15 14:57:01;;;;;;;;;;;;;;;4.94;100.00;97440.00;10492452;28;2850;-71
2023/12/15 15:02:09;;;;;;;;;;;;;;;4.97;100.00;97449.44;10469560;28;2919;-72
2023/12/15 15:07:29;;;;;;;;;;;;;;;4.91;100.00;97471.56;10497517;28;2847;-73
2023/12/15 15:12:34;;;;;;;;;;;;;;;4.86;100.00;97470.28;10509806;28;2875;-73
2023/12/15 15:17:41;;;;;;;;;;;;;;;4.92;100.00;97470.53;10523493;28;2910;-72
2023/12/15 15:23:00;;;;;;;;;;;;;;;4.82;100.00;97477.00;10501943;28;2796;-75
2023/12/15 15:28:14;;;;;;;;;;;;;;;4.80;100.00;97480.91;10503792;28;2848;-75
2023/12/15 15:33:18;;;;;;;;;;;;;;;4.74;100.00;97492.34;10509071;28;2984;-75
2023/12/15 15:38:23;;;;;;;;;;;;;;;4.72;100.00;97484.56;10505197;28;2796;-74
2023/12/15 15:43:26;;;;;;;;;;;;;;;4.72;100.00;97495.22;10495536;28;2823;-74
2023/12/15 15:48:31;;;;;;;;;;;;;;;4.67;100.00;97508.28;10494944;28;3001;-75
2023/12/15 15:53:38;;;;;;;;;;;;;;;4.73;100.00;97520.00;10508030;28;2875;-72
2023/12/15 15:58:44;;;;;;;;;;;;;;;4.81;100.00;97525.19;10510743;27;2861;-72
2023/12/15 16:03:49;;;;;;;;;;;;;;;4.85;100.00;97529.94;10496261;28;2910;-73
2023/12/15 16:08:55;;;;;;;;;;;;;;;4.76;100.00;97533.75;10480562;28;2839;-70
2023/12/15 16:14:03;;;;;;;;;;;;;;;4.80;100.00;97534.19;10511977;28;3223;-73
2023/12/15 16:19:14;;;;;;;;;;;;;;;4.79;100.00;97549.34;10516191;28;2916;-72
2023/12/15 16:24:24;;;;;;;;;;;;;;;4.85;100.00;97542.44;10518905;28;2937;-70
2023/12/15 16:35:07;;;;;;;;;;;;;;;4.75;100.00;97558.75;10503266;28;3080;-68
2023/12/15 16:40:18;;;;;;;;;;;;;;;4.78;100.00;97561.03;10504649;28;2880;-68
2023/12/15 16:45:23;;;;;;;;;;;;;;;4.71;100.00;97562.81;10518033;28;2813;-68
2023/12/15 16:50:30;;;;;;;;;;;;;;;4.70;100.00;97568.31;10508235;28;2882;-68
2023/12/15 16:56:00;;;;;;;;;;;;;;;4.63;100.00;97565.59;10508561;28;2893;-68
2023/12/15 17:01:11;;;;;;;;;;;;;;;4.63;100.00;97568.28;10520966;28;2893;-68
2023/12/15 17:06:16;;;;;;;;;;;;;;;4.59;100.00;97559.03;10498147;28;2882;-69
2023/12/15 17:11:21;;;;;;;;;;;;;;;4.56;100.00;97565.56;10513695;28;2800;-70
2023/12/15 17:16:29;;;;;;;;;;;;;;;4.55;100.00;97563.09;10517396;28;3139;-69
2023/12/15 17:21:35;;;;;;;;;;;;;;;4.73;100.00;97571.44;10534848;28;2244;-71
2023/12/15 17:26:44;;;;;;;;;;;;;;;4.71;100.00;97578.81;10516662;28;2784;-72
2023/12/15 17:31:51;;;;;;;;;;;;;;;4.69;100.00;97574.69;10522910;28;1885;-69
2023/12/15 17:36:59;;;;;;;;;;;;;;;4.61;100.00;97579.13;10526762;28;1589;-71
2023/12/15 17:42:07;;;;;;;;;;;;;;;4.65;100.00;97582.25;10521104;28;2051;-70
2023/12/15 17:47:11;;;;;;;;;;;;;;;4.70;100.00;97587.78;10521343;28;1354;-69
2023/12/15 17:52:14;;;;;;;;;;;;;;;4.65;100.00;97590.25;10528099;28;2802;-69
2023/12/15 17:57:21;;;;;;;;;;;;;;;4.70;100.00;97593.13;10509559;28;1997;-68
2023/12/15 18:02:27;;;;;;;;;;;;;;;4.63;100.00;97578.94;10522106;28;1457;-70
2023/12/15 18:07:41;;;;;;;;;;;;;;;4.73;100.00;97586.59;10531769;28;1605;-68
2023/12/15 18:12:50;;;;;;;;;;;;;;;4.75;100.00;97595.22;10509939;28;1423;-73
2023/12/15 18:18:13;;;;;;;;;;;;;;;4.77;100.00;97594.03;10541368;27;2296;-73
2023/12/15 18:23:19;;;;;;;;;;;;;;;4.79;100.00;97602.66;10543383;28;1509;-73
2023/12/15 18:28:25;;;;;;;;;;;;;;;4.77;100.00;97606.50;10527298;28;1932;-73
2023/12/15 18:33:39;;;;;;;;;;;;;;;4.74;100.00;97607.72;10542721;27;1536;-78
2023/12/15 18:38:51;;;;;;;;;;;;;;;4.74;100.00;97621.03;10538881;28;1922;-70
2023/12/15 18:43:58;;;;;;;;;;;;;;;4.70;100.00;97625.09;10531846;28;4976;-68
2023/12/15 18:49:02;;;;;;;;;;;;;;;4.72;100.00;97631.06;10535189;28;1989;-70
2023/12/15 18:54:08;;;;;;;;;;;;;;;4.78;100.00;97642.81;10507513;28;1673;-70
2023/12/15 18:59:13;;;;;;;;;;;;;;;4.72;100.00;97636.41;10542496;28;1898;-70
2023/12/15 19:04:22;;;;;;;;;;;;;;;4.74;100.00;97647.69;10543164;27;1485;-68
2023/12/15 19:09:37;;;;;;;;;;;;;;;4.77;100.00;97647.31;10530836;28;1490;-71
2023/12/15 19:14:41;;;;;;;;;;;;;;;4.72;100.00;97649.72;10533842;28;1657;-71
2023/12/15 19:20:01;;;;;;;;;;;;;;;4.67;100.00;97641.47;10538406;28;2311;-68
2023/12/15 19:25:14;;;;;;;;;;;;;;;4.72;100.00;97663.03;10527307;28;2040;-69
2023/12/15 19:30:25;;;;;;;;;;;;;;;4.65;100.00;97664.81;10510471;28;2092;-69
2023/12/15 19:35:32;;;;;;;;;;;;;;;4.71;100.00;97661.41;10531062;28;1824;-69
2023/12/15 19:40:39;;;;;;;;;;;;;;;4.68;100.00;97675.09;10499063;28;2634;-68
2023/12/15 19:45:46;;;;;;;;;;;;;;;4.67;100.00;97688.59;10501409;28;5243;-72
2023/12/15 19:50:51;;;;;;;;;;;;;;;4.62;100.00;97675.84;10523149;28;2008;-70
2023/12/15 19:56:21;;;;;;;;;;;;;;;4.65;100.00;97686.13;10528652;28;1441;-75
2023/12/15 20:01:33;;;;;;;;;;;;;;;4.55;100.00;97685.59;10526771;28;1969;-71
2023/12/15 20:06:37;;;;;;;;;;;;;;;4.54;100.00;97690.09;10526039;28;2277;-69
2023/12/15 20:11:42;;;;;;;;;;;;;;;4.49;100.00;97687.19;10538827;27;1441;-70
2023/12/15 20:16:52;;;;;;;;;;;;;;;4.51;100.00;97700.28;10523891;28;1474;-69
2023/12/15 20:21:58;;;;;;;;;;;;;;;4.47;100.00;97707.03;10510165;28;1922;-69
2023/12/15 20:27:11;;;;;;;;;;;;;;;4.49;100.00;97697.00;10524073;28;1572;-66
2023/12/15 20:32:17;;;;;;;;;;;;;;;4.59;100.00;97687.72;10521077;28;1472;-71
2023/12/15 20:37:23;;;;;;;;;;;;;;;4.56;100.00;97688.06;10528100;28;1444;-69
2023/12/15 20:42:27;;;;;;;;;;;;;;;4.48;100.00;97690.84;10530790;28;5027;-70
2023/12/15 20:47:35;;;;;;;;;;;;;;;4.50;100.00;97688.81;10526559;28;1543;-69
2023/12/15 20:52:44;;;;;;;;;;;;;;;4.57;100.00;97699.53;10528894;28;1489;-69
2023/12/15 20:57:54;;;;;;;;;;;;;;;4.54;100.00;97711.41;10537313;28;1466;-69
2023/12/15 21:03:08;;;;;;;;;;;;;;;4.54;100.00;97729.22;10522496;28;1998;-69
2023/12/15 21:08:16;;;;;;;;;;;;;;;4.49;100.00;97743.09;10533237;28;1609;-76
2023/12/15 21:13:23;;;;;;;;;;;;;;;4.20;100.00;97751.97;10520077;28;1493;-72
2023/12/15 21:18:30;;;;;;;;;;;;;;;4.19;100.00;97752.13;10519275;28;1924;-71
2023/12/15 21:29:11;;;;;;;;;;;;;;;4.15;100.00;97764.19;10522789;28;1510;-73
2023/12/15 21:34:18;;;;;;;;;;;;;;;4.09;100.00;97763.06;10552173;28;1494;-74
2023/12/15 21:39:24;;;;;;;;;;;;;;;4.16;100.00;97761.31;10548399;28;1992;-69
2023/12/15 21:44:41;;;;;;;;;;;;;;;4.25;100.00;97757.53;10535266;28;4955;-70
2023/12/15 21:49:52;;;;;;;;;;;;;;;4.16;100.00;97750.69;10528001;28;1394;-69
2023/12/15 21:54:59;;;;;;;;;;;;;;;4.18;100.00;97748.66;10523359;28;1976;-68
2023/12/15 22:00:10;;;;;;;;;;;;;;;4.17;100.00;97776.28;10531265;28;1980;-68
2023/12/15 22:05:22;;;;;;;;;;;;;;;4.02;100.00;97775.47;10527106;28;1513;-68
2023/12/15 22:10:33;;;;;;;;;;;;;;;3.96;100.00;97770.88;10521788;28;1480;-69
2023/12/15 22:15:48;;;;;;;;;;;;;;;3.93;100.00;97781.88;10502489;28;2898;-65
2023/12/15 22:21:02;;;;;;;;;;;;;;;3.91;100.00;97800.69;10519037;28;2918;-69
2023/12/15 22:26:25;;;;;;;;;;;;;;;3.95;100.00;97809.16;10498386;28;3149;-68
2023/12/15 22:31:32;;;;;;;;;;;;;;;3.96;100.00;97798.31;10498447;28;2845;-68
2023/12/15 22:36:53;;;;;;;;;;;;;;;3.98;100.00;97792.78;10525814;28;2889;-68
2023/12/15 22:41:58;;;;;;;;;;;;;;;4.04;100.00;97790.22;10508844;28;4778;-68
2023/12/15 22:47:21;;;;;;;;;;;;;;;4.00;100.00;97786.28;10491748;28;2897;-68
2023/12/15 22:52:33;;;;;;;;;;;;;;;4.05;100.00;97797.19;10520309;27;2908;-69
2023/12/15 22:57:47;;;;;;;;;;;;;;;4.05;100.00;97791.06;10484814;28;2918;-69
2023/12/15 23:02:51;;;;;;;;;;;;;;;4.16;100.00;97781.81;10510854;28;2844;-70
2023/12/15 23:07:55;;;;;;;;;;;;;;;4.17;100.00;97784.28;10507580;28;2826;-68
2023/12/15 23:12:59;;;;;;;;;;;;;;;4.03;100.00;97783.25;10483272;28;2916;-68
2023/12/15 23:18:03;;;;;;;;;;;;;;;3.92;100.00;97791.69;10480547;28;2846;-69
2023/12/15 23:23:06;;;;;;;;;;;;;;;3.95;100.00;97809.16;10468316;28;2881;-68
2023/12/15 23:28:10;;;;;;;;;;;;;;;3.98;100.00;97822.06;10505815;28;2826;-69
2023/12/15 23:33:24;;;;;;;;;;;;;;;3.92;100.00;97828.13;10500868;28;3165;-72
2023/12/15 23:38:29;;;;;;;;;;;;;;;3.86;100.00;97829.66;10484889;28;2925;-70
2023/12/15 23:43:34;;;;;;;;;;;;;;;3.84;100.00;97815.72;10519955;28;4893;-69
2023/12/15 23:48:39;;;;;;;;;;;;;;;3.75;100.00;97815.00;10524812;28;2888;-68
2023/12/15 23:53:51;;;;;;;;;;;;;;;3.76;100.00;97810.50;10504898;28;2955;-69
2023/12/15 23:58:56;;;;;;;;;;;;;;;3.79;100.00;97800.28;10514391;28;2988;-68
